AirNav   Air Wisconsin pilot careers
 
 1717 users online  

3W5 Mears Field Airport
Concrete, Washington, USA


FAA INFORMATION EFFECTIVE 01 FEBRUARY 2018

Location

FAA Identifier: 3W5
Lat/Long: 48-31-47.4180N / 121-45-29.6960W
48-31.790300N / 121-45.494933W
48.5298383 / -121.7582489
(estimated)
Elevation: 267 ft. / 81 m (estimated)
Variation: 21E (1985)
From city: 1 mile S of CONCRETE, WA
Time zone: UTC -8 (UTC -7 during Daylight Saving Time)
Zip code: 98237

Airport Operations

Airport use: Open to the public
Activation date: 07/1938
Control tower: no
ARTCC: SEATTLE CENTER
FSS: SEATTLE FLIGHT SERVICE STATION
NOTAMs facility: SEA (NOTAM-D service available)
Attendance: UNATNDD
Wind indicator: yes
Segmented circle: yes

Airport Communications

CTAF: 122.9

Nearby radio navigation aids

NDB name  Hdg/Dist  Freq  Var  ID
SKAGIT/BAY VIEW066/26.524016EBVS -... ...- ...

Airport Services

Fuel available: 100LL
Parking: tiedowns
Airframe service: NONE
Powerplant service: NONE
Bottled oxygen: NONE
Bulk oxygen: NONE

Runway Information

Runway 7/25

Dimensions: 2609 x 60 ft. / 795 x 18 m
Surface: asphalt, in good condition
Weight bearing capacity: 
Single wheel: 12.0
RUNWAY 7  RUNWAY 25
Latitude: 48-31.792783N48-31.787817N
Longitude: 121-45.817133W121-45.171067W
Gradient: 0.1%0.1%
Traffic pattern: rightleft
Markings: basic, in good conditionbasic, in good condition
Obstructions: 41 ft. trees, 900 ft. from runway, 17:1 slope to clear44 ft. trees, 720 ft. from runway, 11:1 slope to clear
INFREQUENTLY USED ROAD AT 0'.

Helipad H1

Dimensions: 40 x 40 ft. / 12 x 12 m
Surface: concrete, in good condition
Operational restrictions: HELIPAD FOR EMERGENCY USE ONLY.
Traffic pattern: leftleft

Airport Ownership and Management from official FAA records

Ownership: Publicly-owned
Owner: CITY OF CONCRETE
PO BOX 39
CONCRETE, WA 98237
Phone 360-853-8401
Manager: CITY OF CONCRETE
PO BOX 39
CONCRETE, WA 98237
Phone 360-853-7114
JACK MEARS: AIRPORT REPRESENTATIVE.

Airport Operational Statistics

Aircraft based on the field: 46
Single engine airplanes: 44
Multi engine airplanes: 2
    
Aircraft operations: avg 97/week *
60% transient general aviation
40% local general aviation
<1% military
* for 12-month period ending 31 December 2016

Additional Remarks

ALL PATTERNS SOUTH OF ARPT.
ELK AND DEER FREQUENT BOTH RWY ENDS AND MID-FIELD.

Instrument Procedures

There are no published instrument procedures at 3W5.

Some nearby airports with instrument procedures:

KBVS - Skagit Regional Airport (27 nm W)
KAWO - Arlington Municipal Airport (27 nm SW)
KBLI - Bellingham International Airport (35 nm NW)
KNUW - Whidbey Island Naval Air Station (Ault Field) (37 nm W)
S43 - Harvey Field Airport (40 nm S)
 
Loc | Ops | Rwys | IFR | FBO | Links
Com | Nav | Svcs | Stats | Notes

AirNav Hotels Sweepstakes
 
Area around 3W5 (Mears Field Airport)
 
Road maps at: MapQuest Bing Google
 
Aerial photo
WARNING: Photo may not be current or correct
Aerial photo of 3W5 (Mears Field Airport)
Photo by John Scurlock
Photo taken 19-Oct-2014
looking east.

Do you have a better or more recent aerial photo of Mears Field Airport that you would like to share? If so, please send us your photo.

 
Sectional chart

 
Airport distance calculator
Flying to Mears Field Airport? Find the distance to fly.

From to 3W5

Sunrise and sunset
Times for 20-Feb-2018
 Local
(UTC-8)
 Zulu
(UTC)
Morning civil twilight06:3514:35
Sunrise07:0615:06
Sunset17:3501:35
Evening civil twilight18:0702:07

Current date and time
Zulu (UTC)  20-Feb-2018 17:52:38
Local (UTC-8)  20-Feb-2018 09:52:38
 
METAR
KBVS 
26nm W 
201735Z AUTO 06012KT 10SM CLR M02/M09 A3021 RMK A01
KAWO 
27nm SW 
201656Z AUTO 02005KT 10SM OVC070 M03/M07 A3020 RMK AO2 SLP233 T10281072 FZRANO
KBLI 
35nm NW 
201653Z 01007KT 10SM OVC100 M03/M08 A3020 RMK AO2 SLP239 T10331083
74S 
36nm W 
SuperAWOS
201646Z AUTO 07010G15KT 10SM M02/M07 A3018
KNUW 
37nm W 
201656Z 10006KT 10SM FEW039 SCT055 OVC100 01/M07 A3023 RMK AO2 SLP236 T00061072 $
CYXX 
38nm NW 
201500Z 04004KT 30SM BKN110 M06/M09 A3021 RMK AC7 SLP236
KPAE 
42nm SW 
201653Z 08006KT 10SM OVC080 M01/M08 A3016 RMK AO2 SLP221 T10111083
CWZA 
43nm N 
201500Z AUTO 04016G22KT M06/M12 RMK AO1 PK WND 04023/1427 SLP239 T10611120 56003
KORS 
46nm W 
201735Z AUTO 05005KT 10SM BKN100 M01/M06 A3022 RMK AO2
CWWK 
49nm NW 
201500Z AUTO 05003KT M04/M09 RMK AO1 SLP235 T10381086 56004
TAF
KBLI 
35nm NW 
201129Z 2012/2112 35004KT P6SM SCT070 BKN120 FM201900 03008KT P6SM SCT100 BKN200 FM210300 01006KT P6SM SKC
KNUW 
37nm W 
2015/2115 10007KT 9999 FEW050 SCT080 BKN110 BKN250 610109 QNH3018INS TEMPO 2016/2022 VRB05KT SCT045 BKN070 OVC110 FM202200 30007KT 9999 FEW060 SCT100 SCT250 600000 QNH3021INS FM211000 VRB05KT 9999 FEW120 SCT250 QNH3036INS T04/2023Z TM02/2114Z FS30046
CYXX 
38nm NW 
201138Z 2012/2112 04005KT P6SM SCT050 SCT150 TEMPO 2012/2018 BKN050 FM201800 04008KT P6SM FEW050 BECMG 2021/2023 04010G20KT RMK NXT FCST BY 201800Z
KPAE 
42nm SW 
201129Z 2012/2112 08007KT P6SM SCT120 BKN200 FM201400 VRB05KT P6SM BKN100 OVC200 FM202000 36006KT P6SM OVC090 FM210200 02004KT P6SM SCT120 BKN250 FM210700 04005KT P6SM SKC
NOTAMs
Click for the latest NOTAMs
NOTAMs are issued by the DoD/FAA and will open in a separate window not controlled by AirNav.

 

 
 

Would you like to see your business listed on this page?

 If your business provides an interesting product or service to pilots, flight crews, aircraft, or users of the Mears Field Airport, you should consider listing it here.  To start the listing process, click on the button below
 
Add a business
 

Other Pages about Mears Field Airport

Update a link
 
Copyright © AirNav, LLC. All rights reserved. Privacy Policy  Contact